sensor_id;sensor_type;location;lat;lon;timestamp;pressure;altitude;pressure_sealevel;temperature;humidity
35435;BME280;21556;55.782;37.528;2023-09-12T00:00:01;100095.72;;;15.33;100.00
35435;BME280;21556;55.782;37.528;2023-09-12T00:02:43;100090.44;;;15.37;100.00
35435;BME280;21556;55.782;37.528;2023-09-12T00:05:11;100100.03;;;15.17;100.00
35435;BME280;21556;55.782;37.528;2023-09-12T00:07:40;100097.38;;;15.12;100.00
35435;BME280;21556;55.782;37.528;2023-09-12T00:10:12;100103.63;;;15.27;100.00
35435;BME280;21556;55.782;37.528;2023-09-12T00:12:44;100102.81;;;15.54;100.00
35435;BME280;21556;55.782;37.528;2023-09-12T00:15:16;100098.44;;;15.63;100.00
35435;BME280;21556;55.782;37.528;2023-09-12T00:17:42;100099.16;;;15.16;100.00
35435;BME280;21556;55.782;37.528;2023-09-12T00:20:16;100099.25;;;15.38;100.00
35435;BME280;21556;55.782;37.528;2023-09-12T00:22:46;100111.44;;;15.04;100.00
35435;BME280;21556;55.782;37.528;2023-09-12T00:25:23;100112.34;;;15.09;100.00
35435;BME280;21556;55.782;37.528;2023-09-12T00:27:52;100108.84;;;15.13;100.00
35435;BME280;21556;55.782;37.528;2023-09-12T00:30:24;100114.97;;;15.00;100.00
35435;BME280;21556;55.782;37.528;2023-09-12T00:33:01;100120.34;;;15.18;100.00
35435;BME280;21556;55.782;37.528;2023-09-12T00:35:27;100120.38;;;15.26;100.00
35435;BME280;21556;55.782;37.528;2023-09-12T00:38:01;100120.31;;;15.21;100.00
35435;BME280;21556;55.782;37.528;2023-09-12T00:40:29;100125.47;;;14.92;100.00
35435;BME280;21556;55.782;37.528;2023-09-12T00:42:59;100124.59;;;14.93;100.00
35435;BME280;21556;55.782;37.528;2023-09-12T00:45:39;100128.94;;;14.83;100.00
35435;BME280;21556;55.782;37.528;2023-09-12T00:48:05;100129.88;;;14.93;100.00
35435;BME280;21556;55.782;37.528;2023-09-12T00:50:41;100124.56;;;14.88;100.00
35435;BME280;21556;55.782;37.528;2023-09-12T00:53:21;100126.28;;;14.79;100.00
35435;BME280;21556;55.782;37.528;2023-09-12T00:56:01;100131.72;;;15.03;100.00
35435;BME280;21556;55.782;37.528;2023-09-12T00:58:42;100137.75;;;14.82;100.00
35435;BME280;21556;55.782;37.528;2023-09-12T01:01:13;100139.69;;;15.17;100.00
35435;BME280;21556;55.782;37.528;2023-09-12T01:03:42;100137.94;;;15.19;100.00
35435;BME280;21556;55.782;37.528;2023-09-12T01:06:09;100132.63;;;15.16;100.00
35435;BME280;21556;55.782;37.528;2023-09-12T01:08:47;100136.97;;;15.00;100.00
35435;BME280;21556;55.782;37.528;2023-09-12T01:11:17;100133.63;;;15.41;100.00
35435;BME280;21556;55.782;37.528;2023-09-12T01:13:51;100135.41;;;15.40;100.00
35435;BME280;21556;55.782;37.528;2023-09-12T01:16:25;100139.72;;;15.25;100.00
35435;BME280;21556;55.782;37.528;2023-09-12T01:18:53;100139.78;;;15.32;100.00
35435;BME280;21556;55.782;37.528;2023-09-12T01:21:36;100129.22;;;15.37;100.00
35435;BME280;21556;55.782;37.528;2023-09-12T01:24:35;100136.28;;;15.50;
35435;BME280;21556;55.782;37.528;2023-09-12T01:29:49;100137.91;;;15.11;100.00
35435;BME280;21556;55.782;37.528;2023-09-12T01:32:17;100136.06;;;14.97;100.00
35435;BME280;21556;55.782;37.528;2023-09-12T01:34:47;100143.88;;;14.80;100.00
35435;BME280;21556;55.782;37.528;2023-09-12T01:37:14;100135.16;;;14.91;100.00
35435;BME280;21556;55.782;37.528;2023-09-12T01:39:41;100138.78;;;15.13;100.00
35435;BME280;21556;55.782;37.528;2023-09-12T01:42:14;100143.97;;;14.95;100.00
35435;BME280;21556;55.782;37.528;2023-09-12T01:44:44;100151.81;;;14.78;100.00
35435;BME280;21556;55.782;37.528;2023-09-12T01:47:15;100145.56;;;14.64;100.00
35435;BME280;21556;55.782;37.528;2023-09-12T01:49:47;100147.56;;;15.09;100.00
35435;BME280;21556;55.782;37.528;2023-09-12T01:52:19;100154.53;;;14.89;100.00
35435;BME280;21556;55.782;37.528;2023-09-12T01:54:50;100149.13;;;14.71;100.00
35435;BME280;21556;55.782;37.528;2023-09-12T01:57:19;100149.78;;;14.48;100.00
35435;BME280;21556;55.782;37.528;2023-09-12T01:59:51;100151.53;;;14.46;100.00
35435;BME280;21556;55.782;37.528;2023-09-12T02:02:20;100153.28;;;14.49;100.00
35435;BME280;21556;55.782;37.528;2023-09-12T02:05:05;100157.06;;;14.77;100.00
35435;BME280;21556;55.782;37.528;2023-09-12T02:07:37;100157.09;;;14.80;100.00
35435;BME280;21556;55.782;37.528;2023-09-12T02:10:03;100151.81;;;14.78;100.00
35435;BME280;21556;55.782;37.528;2023-09-12T02:12:33;100155.25;;;14.68;100.00
35435;BME280;21556;55.782;37.528;2023-09-12T02:15:01;100158.72;;;14.61;100.00
35435;BME280;21556;55.782;37.528;2023-09-12T02:17:32;100154.25;;;14.52;100.00
35435;BME280;21556;55.782;37.528;2023-09-12T02:20:18;100158.81;;;14.72;100.00
35435;BME280;21556;55.782;37.528;2023-09-12T02:22:48;100159.44;;;14.44;100.00
35435;BME280;21556;55.782;37.528;2023-09-12T02:25:17;100169.09;;;14.44;100.00
35435;BME280;21556;55.782;37.528;2023-09-12T02:27:48;100169.94;;;14.37;100.00
35435;BME280;21556;55.782;37.528;2023-09-12T02:30:14;100168.19;;;14.39;100.00
35435;BME280;21556;55.782;37.528;2023-09-12T02:32:44;100174.34;;;14.38;100.00
35435;BME280;21556;55.782;37.528;2023-09-12T02:35:13;100167.25;;;14.32;100.00
35435;BME280;21556;55.782;37.528;2023-09-12T02:37:44;100174.25;;;14.29;100.00
35435;BME280;21556;55.782;37.528;2023-09-12T02:40:16;100179.69;;;14.49;100.00
35435;BME280;21556;55.782;37.528;2023-09-12T02:42:46;100176.97;;;14.36;100.00
35435;BME280;21556;55.782;37.528;2023-09-12T02:45:19;100181.38;;;14.36;100.00
35435;BME280;21556;55.782;37.528;2023-09-12T02:47:48;100173.47;;;14.40;100.00
35435;BME280;21556;55.782;37.528;2023-09-12T02:50:27;100184.72;;;14.19;100.00
35435;BME280;21556;55.782;37.528;2023-09-12T02:53:02;100175.25;;;14.44;100.00
35435;BME280;21556;55.782;37.528;2023-09-12T02:55:30;100180.50;;;14.38;100.00
35435;BME280;21556;55.782;37.528;2023-09-12T02:58:00;100178.13;;;14.66;100.00
35435;BME280;21556;55.782;37.528;2023-09-12T03:00:40;100178.13;;;14.64;100.00
35435;BME280;21556;55.782;37.528;2023-09-12T03:03:14;100185.72;;;14.34;100.00
35435;BME280;21556;55.782;37.528;2023-09-12T03:05:43;100186.72;;;14.42;100.00
35435;BME280;21556;55.782;37.528;2023-09-12T03:08:10;100186.97;;;14.74;100.00
35435;BME280;21556;55.782;37.528;2023-09-12T03:10:39;100182.41;;;14.52;100.00
35435;BME280;21556;55.782;37.528;2023-09-12T03:13:07;100185.09;;;14.59;100.00
35435;BME280;21556;55.782;37.528;2023-09-12T03:15:37;100176.34;;;14.65;100.00
35435;BME280;21556;55.782;37.528;2023-09-12T03:18:07;100187.56;;;14.41;100.00
35435;BME280;21556;55.782;37.528;2023-09-12T03:20:38;100183.91;;;14.25;100.00
35435;BME280;21556;55.782;37.528;2023-09-12T03:23:05;100190.13;;;14.33;100.00
35435;BME280;21556;55.782;37.528;2023-09-12T03:25:38;100187.63;;;14.49;100.00
35435;BME280;21556;55.782;37.528;2023-09-12T03:28:06;100182.56;;;14.72;100.00
35435;BME280;21556;55.782;37.528;2023-09-12T03:30:35;100190.44;;;14.65;100.00
35435;BME280;21556;55.782;37.528;2023-09-12T03:33:03;100188.63;;;14.58;100.00
35435;BME280;21556;55.782;37.528;2023-09-12T03:35:34;100193.94;;;14.63;100.00
35435;BME280;21556;55.782;37.528;2023-09-12T03:38:03;100183.28;;;14.52;100.00
35435;BME280;21556;55.782;37.528;2023-09-12T03:40:31;100195.41;;;14.32;100.00
35435;BME280;21556;55.782;37.528;2023-09-12T03:42:58;100194.47;;;14.25;100.00
35435;BME280;21556;55.782;37.528;2023-09-12T03:45:25;100196.16;;;14.18;100.00
35435;BME280;21556;55.782;37.528;2023-09-12T03:48:03;100197.06;;;14.22;100.00
35435;BME280;21556;55.782;37.528;2023-09-12T03:50:48;100191.03;;;14.37;100.00
35435;BME280;21556;55.782;37.528;2023-09-12T03:53:28;100192.72;;;14.27;100.00
35435;BME280;21556;55.782;37.528;2023-09-12T03:55:57;100197.91;;;14.16;100.00
35435;BME280;21556;55.782;37.528;2023-09-12T03:58:25;100196.22;;;14.26;100.00
35435;BME280;21556;55.782;37.528;2023-09-12T04:00:55;100196.31;;;14.35;100.00
35435;BME280;21556;55.782;37.528;2023-09-12T04:03:23;100195.44;;;14.36;100.00
35435;BME280;21556;55.782;37.528;2023-09-12T04:05:50;100191.31;;;14.66;100.00
35435;BME280;21556;55.782;37.528;2023-09-12T04:08:18;100206.00;;;14.36;100.00
35435;BME280;21556;55.782;37.528;2023-09-12T04:10:48;100202.53;;;14.43;100.00
35435;BME280;21556;55.782;37.528;2023-09-12T04:13:14;100193.88;;;14.55;100.00
35435;BME280;21556;55.782;37.528;2023-09-12T04:15:45;100199.22;;;14.63;100.00
35435;BME280;21556;55.782;37.528;2023-09-12T04:18:11;100202.91;;;14.85;100.00
35435;BME280;21556;55.782;37.528;2023-09-12T04:20:38;100217.84;;;14.80;100.00
35435;BME280;21556;55.782;37.528;2023-09-12T04:23:07;100215.28;;;14.90;100.00
35435;BME280;21556;55.782;37.528;2023-09-12T04:25:33;100210.72;;;14.68;100.00
35435;BME280;21556;55.782;37.528;2023-09-12T04:28:03;100218.81;;;14.89;100.00
35435;BME280;21556;55.782;37.528;2023-09-12T04:30:35;100213.50;;;14.88;100.00
35435;BME280;21556;55.782;37.528;2023-09-12T04:33:02;100218.00;;;15.00;100.00
35435;BME280;21556;55.782;37.528;2023-09-12T04:35:28;100221.19;;;14.59;100.00
35435;BME280;21556;55.782;37.528;2023-09-12T04:37:57;100222.03;;;14.55;100.00
35435;BME280;21556;55.782;37.528;2023-09-12T04:40:23;100217.81;;;14.75;100.00
35435;BME280;21556;55.782;37.528;2023-09-12T04:42:49;100218.75;;;14.83;100.00
35435;BME280;21556;55.782;37.528;2023-09-12T04:45:17;100226.78;;;14.99;100.00
35435;BME280;21556;55.782;37.528;2023-09-12T04:47:43;100219.50;;;14.64;100.00
35435;BME280;21556;55.782;37.528;2023-09-12T04:50:17;100223.03;;;14.69;100.00
35435;BME280;21556;55.782;37.528;2023-09-12T04:52:52;100226.66;;;14.82;100.00
35435;BME280;21556;55.782;37.528;2023-09-12T04:55:21;100227.78;;;15.14;100.00
35435;BME280;21556;55.782;37.528;2023-09-12T04:57:47;100226.88;;;15.11;100.00
35435;BME280;21556;55.782;37.528;2023-09-12T05:00:14;100222.53;;;15.22;100.00
35435;BME280;21556;55.782;37.528;2023-09-12T05:02:45;100223.16;;;14.84;100.00
35435;BME280;21556;55.782;37.528;2023-09-12T05:05:14;100224.88;;;14.79;100.00
35435;BME280;21556;55.782;37.528;2023-09-12T05:07:40;100223.16;;;14.83;100.00
35435;BME280;21556;55.782;37.528;2023-09-12T05:10:07;100218.06;;;15.07;100.00
35435;BME280;21556;55.782;37.528;2023-09-12T05:12:34;100220.72;;;15.13;100.00
35435;BME280;21556;55.782;37.528;2023-09-12T05:15:03;100224.28;;;15.20;100.00
35435;BME280;21556;55.782;37.528;2023-09-12T05:17:30;100222.47;;;15.13;100.00
35435;BME280;21556;55.782;37.528;2023-09-12T05:19:56;100229.66;;;15.34;100.00
35435;BME280;21556;55.782;37.528;2023-09-12T05:22:22;100226.09;;;15.32;100.00
35435;BME280;21556;55.782;37.528;2023-09-12T05:24:49;100230.53;;;15.33;100.00
35435;BME280;21556;55.782;37.528;2023-09-12T05:27:16;100239.22;;;15.13;100.00
35435;BME280;21556;55.782;37.528;2023-09-12T05:29:43;100228.81;;;15.43;100.00
35435;BME280;21556;55.782;37.528;2023-09-12T05:32:09;100239.53;;;15.67;100.00
35435;BME280;21556;55.782;37.528;2023-09-12T05:34:35;100238.72;;;15.80;100.00
35435;BME280;21556;55.782;37.528;2023-09-12T05:37:02;100241.31;;;15.71;100.00
35435;BME280;21556;55.782;37.528;2023-09-12T05:39:28;100241.34;;;15.77;100.00
35435;BME280;21556;55.782;37.528;2023-09-12T05:41:55;100237.09;;;16.36;100.00
35435;BME280;21556;55.782;37.528;2023-09-12T05:44:21;100238.03;;;16.81;100.00
35435;BME280;21556;55.782;37.528;2023-09-12T05:46:48;100248.66;;;16.99;100.00
35435;BME280;21556;55.782;37.528;2023-09-12T05:49:19;100231.00;;;16.78;100.00
35435;BME280;21556;55.782;37.528;2023-09-12T05:51:45;100240.69;;;16.95;100.00
35435;BME280;21556;55.782;37.528;2023-09-12T05:54:12;100251.25;;;17.13;100.00
35435;BME280;21556;55.782;37.528;2023-09-12T05:56:41;100233.44;;;17.67;100.00
35435;BME280;21556;55.782;37.528;2023-09-12T05:59:10;100238.81;;;17.58;100.00
35435;BME280;21556;55.782;37.528;2023-09-12T06:01:38;100243.03;;;18.10;100.00
35435;BME280;21556;55.782;37.528;2023-09-12T06:04:05;100239.09;;;18.66;100.00
35435;BME280;21556;55.782;37.528;2023-09-12T06:06:32;100237.44;;;19.51;100.00
35435;BME280;21556;55.782;37.528;2023-09-12T06:08:59;100236.38;;;20.32;100.00
35435;BME280;21556;55.782;37.528;2023-09-12T06:11:30;100238.06;;;20.41;100.00
35435;BME280;21556;55.782;37.528;2023-09-12T06:13:57;100241.97;;;20.77;100.00
35435;BME280;21556;55.782;37.528;2023-09-12T06:16:24;100246.22;;;21.38;100.00
35435;BME280;21556;55.782;37.528;2023-09-12T06:18:50;100251.91;;;21.67;100.00
35435;BME280;21556;55.782;37.528;2023-09-12T06:21:17;100237.44;;;22.59;100.00
35435;BME280;21556;55.782;37.528;2023-09-12T06:23:45;100239.00;;;22.30;100.00
35435;BME280;21556;55.782;37.528;2023-09-12T06:26:11;100240.72;;;21.91;100.00
35435;BME280;21556;55.782;37.528;2023-09-12T06:28:38;100240.97;;;22.21;100.00
35435;BME280;21556;55.782;37.528;2023-09-12T06:31:08;100246.78;;;22.40;100.00
35435;BME280;21556;55.782;37.528;2023-09-12T06:33:39;100241.59;;;22.71;100.00
35435;BME280;21556;55.782;37.528;2023-09-12T06:36:07;100250.38;;;23.13;100.00
35435;BME280;21556;55.782;37.528;2023-09-12T06:38:34;100247.88;;;23.72;100.00
35435;BME280;21556;55.782;37.528;2023-09-12T06:41:00;100239.44;;;24.45;100.00
35435;BME280;21556;55.782;37.528;2023-09-12T06:43:34;100248.06;;;24.55;100.00
35435;BME280;21556;55.782;37.528;2023-09-12T06:46:00;100243.22;;;24.09;100.00
35435;BME280;21556;55.782;37.528;2023-09-12T06:48:27;100238.41;;;24.49;100.00
35435;BME280;21556;55.782;37.528;2023-09-12T06:50:56;100243.09;;;23.51;100.00
35435;BME280;21556;55.782;37.528;2023-09-12T06:53:22;100249.66;;;23.05;100.00
35435;BME280;21556;55.782;37.528;2023-09-12T06:55:48;100248.56;;;23.79;100.00
35435;BME280;21556;55.782;37.528;2023-09-12T06:58:16;100241.66;;;23.70;100.00
35435;BME280;21556;55.782;37.528;2023-09-12T07:00:42;100247.66;;;24.39;100.00
35435;BME280;21556;55.782;37.528;2023-09-12T07:03:10;100251.50;;;24.01;100.00
35435;BME280;21556;55.782;37.528;2023-09-12T07:05:46;100252.88;;;24.14;100.00
35435;BME280;21556;55.782;37.528;2023-09-12T07:08:13;100259.44;;;24.62;100.00
35435;BME280;21556;55.782;37.528;2023-09-12T07:10:50;100259.53;;;25.40;99.54
35435;BME280;21556;55.782;37.528;2023-09-12T07:13:16;100248.00;;;24.57;99.01
35435;BME280;21556;55.782;37.528;2023-09-12T07:15:43;100249.47;;;25.70;91.36
35435;BME280;21556;55.782;37.528;2023-09-12T07:18:09;100247.78;;;25.17;97.07
35435;BME280;21556;55.782;37.528;2023-09-12T07:20:36;100250.91;;;25.04;98.57
35435;BME280;21556;55.782;37.528;2023-09-12T07:23:13;100254.66;;;24.71;100.00
35435;BME280;21556;55.782;37.528;2023-09-12T07:25:40;100254.56;;;24.18;100.00
35435;BME280;21556;55.782;37.528;2023-09-12T07:28:08;100247.72;;;24.08;100.00
35435;BME280;21556;55.782;37.528;2023-09-12T07:30:36;100248.81;;;24.29;100.00
35435;BME280;21556;55.782;37.528;2023-09-12T07:33:04;100244.09;;;24.09;100.00
35435;BME280;21556;55.782;37.528;2023-09-12T07:35:30;100246.72;;;23.81;100.00
35435;BME280;21556;55.782;37.528;2023-09-12T07:37:57;100234.59;;;24.57;100.00
35435;BME280;21556;55.782;37.528;2023-09-12T07:40:23;100241.66;;;24.59;100.00
35435;BME280;21556;55.782;37.528;2023-09-12T07:42:50;100240.38;;;24.71;100.00
35435;BME280;21556;55.782;37.528;2023-09-12T07:45:16;100241.09;;;24.76;100.00
35435;BME280;21556;55.782;37.528;2023-09-12T07:47:43;100244.72;;;25.78;96.51
35435;BME280;21556;55.782;37.528;2023-09-12T07:50:09;100243.94;;;25.75;94.09
35435;BME280;21556;55.782;37.528;2023-09-12T07:52:35;100245.91;;;24.93;100.00
35435;BME280;21556;55.782;37.528;2023-09-12T07:55:02;100249.06;;;25.06;98.87
35435;BME280;21556;55.782;37.528;2023-09-12T07:57:31;100247.38;;;25.02;100.00
35435;BME280;21556;55.782;37.528;2023-09-12T07:59:58;100240.97;;;24.53;100.00
35435;BME280;21556;55.782;37.528;2023-09-12T08:02:27;100240.81;;;25.12;95.20
35435;BME280;21556;55.782;37.528;2023-09-12T08:04:53;100243.59;;;24.82;97.22
35435;BME280;21556;55.782;37.528;2023-09-12T08:07:19;100245.81;;;24.96;95.99
35435;BME280;21556;55.782;37.528;2023-09-12T08:09:53;100251.13;;;24.71;96.77
35435;BME280;21556;55.782;37.528;2023-09-12T08:12:22;100244.03;;;26.42;81.30
35435;BME280;21556;55.782;37.528;2023-09-12T08:14:50;100249.78;;;24.84;94.99
35435;BME280;21556;55.782;37.528;2023-09-12T08:17:16;100246.47;;;26.03;87.46
35435;BME280;21556;55.782;37.528;2023-09-12T08:19:43;100238.81;;;25.92;82.37
35435;BME280;21556;55.782;37.528;2023-09-12T08:22:10;100240.41;;;25.98;81.03
35435;BME280;21556;55.782;37.528;2023-09-12T08:24:37;100235.56;;;25.34;89.81
35435;BME280;21556;55.782;37.528;2023-09-12T08:27:04;100240.97;;;24.81;97.19
35435;BME280;21556;55.782;37.528;2023-09-12T08:29:31;100240.50;;;25.46;88.02
35435;BME280;21556;55.782;37.528;2023-09-12T08:31:58;100238.06;;;25.63;88.44
35435;BME280;21556;55.782;37.528;2023-09-12T08:34:24;100234.28;;;25.45;90.43
35435;BME280;21556;55.782;37.528;2023-09-12T08:36:51;100224.53;;;25.66;88.40
35435;BME280;21556;55.782;37.528;2023-09-12T08:39:27;100231.50;;;25.72;82.24
35435;BME280;21556;55.782;37.528;2023-09-12T08:41:54;100226.88;;;26.23;78.25
35435;BME280;21556;55.782;37.528;2023-09-12T08:44:21;100223.91;;;26.74;74.38
35435;BME280;21556;55.782;37.528;2023-09-12T08:46:49;100224.63;;;26.12;76.65
35435;BME280;21556;55.782;37.528;2023-09-12T08:49:17;100218.09;;;26.17;66.03
35435;BME280;21556;55.782;37.528;2023-09-12T08:51:45;100223.88;;;26.30;68.24
35435;BME280;21556;55.782;37.528;2023-09-12T08:54:13;100219.28;;;26.78;62.88
35435;BME280;21556;55.782;37.528;2023-09-12T08:56:44;100226.41;;;26.57;65.04
35435;BME280;21556;55.782;37.528;2023-09-12T08:59:13;100220.22;;;27.19;58.82
35435;BME280;21556;55.782;37.528;2023-09-12T09:01:46;100215.09;;;26.71;61.34
35435;BME280;21556;55.782;37.528;2023-09-12T09:04:19;100217.16;;;26.64;62.64
35435;BME280;21556;55.782;37.528;2023-09-12T09:06:50;100222.41;;;26.67;57.97
35435;BME280;21556;55.782;37.528;2023-09-12T09:09:25;100217.19;;;26.19;61.29
35435;BME280;21556;55.782;37.528;2023-09-12T09:11:55;100214.06;;;26.95;55.12
35435;BME280;21556;55.782;37.528;2023-09-12T09:14:33;100215.28;;;26.44;60.19
35435;BME280;21556;55.782;37.528;2023-09-12T09:17:07;100219.09;;;26.60;61.94
35435;BME280;21556;55.782;37.528;2023-09-12T09:19:47;100216.59;;;26.56;61.87
35435;BME280;21556;55.782;37.528;2023-09-12T09:22:21;100216.16;;;25.99;67.37
35435;BME280;21556;55.782;37.528;2023-09-12T09:25:09;100207.84;;;26.93;60.67
35435;BME280;21556;55.782;37.528;2023-09-12T09:27:40;100207.56;;;27.81;55.55
35435;BME280;21556;55.782;37.528;2023-09-12T09:30:15;100208.69;;;28.34;48.85
35435;BME280;21556;55.782;37.528;2023-09-12T09:32:41;100201.47;;;27.77;50.00
35435;BME280;21556;55.782;37.528;2023-09-12T09:35:16;100204.09;;;27.79;51.88
35435;BME280;21556;55.782;37.528;2023-09-12T09:37:44;100200.72;;;27.34;54.04
35435;BME280;21556;55.782;37.528;2023-09-12T09:40:14;100196.16;;;27.76;51.54
35435;BME280;21556;55.782;37.528;2023-09-12T09:42:44;100208.22;;;26.63;58.57
35435;BME280;21556;55.782;37.528;2023-09-12T09:45:12;100215.81;;;26.96;56.91
35435;BME280;21556;55.782;37.528;2023-09-12T09:47:48;100216.00;;;27.14;53.29
35435;BME280;21556;55.782;37.528;2023-09-12T09:50:45;100200.69;;;27.74;52.85
35435;BME280;21556;55.782;37.528;2023-09-12T09:53:13;100214.34;;;27.09;55.01
35435;BME280;21556;55.782;37.528;2023-09-12T09:55:43;100201.94;;;27.27;54.47
35435;BME280;21556;55.782;37.528;2023-09-12T09:58:15;100206.38;;;27.68;50.39
35435;BME280;21556;55.782;37.528;2023-09-12T10:00:56;100208.78;;;27.34;54.13
35435;BME280;21556;55.782;37.528;2023-09-12T10:03:28;100212.31;;;26.72;53.85
35435;BME280;21556;55.782;37.528;2023-09-12T10:05:56;100209.38;;;26.78;56.14
35435;BME280;21556;55.782;37.528;2023-09-12T10:08:27;100210.13;;;26.82;54.87
35435;BME280;21556;55.782;37.528;2023-09-12T10:10:57;100205.63;;;26.82;53.67
35435;BME280;21556;55.782;37.528;2023-09-12T10:13:27;100211.41;;;26.73;52.81
35435;BME280;21556;55.782;37.528;2023-09-12T10:16:00;100199.25;;;26.41;53.79
35435;BME280;21556;55.782;37.528;2023-09-12T10:18:35;100199.75;;;27.35;51.32
35435;BME280;21556;55.782;37.528;2023-09-12T10:21:15;100199.41;;;27.02;52.54
35435;BME280;21556;55.782;37.528;2023-09-12T10:23:45;100198.63;;;27.21;53.42
35435;BME280;21556;55.782;37.528;2023-09-12T10:26:13;100189.53;;;28.40;44.16
35435;BME280;21556;55.782;37.528;2023-09-12T10:28:41;100198.06;;;28.67;45.53
35435;BME280;21556;55.782;37.528;2023-09-12T10:31:10;100200.69;;;27.74;47.62
35435;BME280;21556;55.782;37.528;2023-09-12T10:33:36;100198.19;;;26.67;48.28
35435;BME280;21556;55.782;37.528;2023-09-12T10:36:05;100206.06;;;26.72;48.79
35435;BME280;21556;55.782;37.528;2023-09-12T10:38:40;100210.94;;;27.26;50.09
35435;BME280;21556;55.782;37.528;2023-09-12T10:41:08;100204.28;;;27.15;47.19
35435;BME280;21556;55.782;37.528;2023-09-12T10:43:35;100205.66;;;27.03;49.90
35435;BME280;21556;55.782;37.528;2023-09-12T10:46:04;100192.63;;;27.14;47.87
35435;BME280;21556;55.782;37.528;2023-09-12T10:48:31;100198.88;;;26.72;51.78
35435;BME280;21556;55.782;37.528;2023-09-12T10:50:58;100200.88;;;26.00;58.52
35435;BME280;21556;55.782;37.528;2023-09-12T10:53:26;100205.41;;;25.51;62.59
35435;BME280;21556;55.782;37.528;2023-09-12T10:56:13;100205.94;;;24.59;71.08
35435;BME280;21556;55.782;37.528;2023-09-12T11:01:45;100196.53;;;25.49;63.24
35435;BME280;21556;55.782;37.528;2023-09-12T11:06:46;100209.66;;;24.80;67.59
35435;BME280;21556;55.782;37.528;2023-09-12T11:09:22;100196.81;;;24.07;70.61
35435;BME280;21556;55.782;37.528;2023-09-12T11:12:03;100191.78;;;23.96;72.96
35435;BME280;21556;55.782;37.528;2023-09-12T11:14:30;100194.03;;;24.39;70.78
35435;BME280;21556;55.782;37.528;2023-09-12T11:19:47;100185.06;;;24.39;71.45
35435;BME280;21556;55.782;37.528;2023-09-12T11:22:23;100184.03;;;23.87;77.69
35435;BME280;21556;55.782;37.528;2023-09-12T11:24:49;100192.38;;;24.06;75.61
35435;BME280;21556;55.782;37.528;2023-09-12T11:27:17;100186.50;;;23.94;73.46
35435;BME280;21556;55.782;37.528;2023-09-12T11:29:43;100190.72;;;24.01;73.05
35435;BME280;21556;55.782;37.528;2023-09-12T11:32:09;100190.69;;;23.73;75.50
35435;BME280;21556;55.782;37.528;2023-09-12T11:34:41;100190.03;;;23.95;64.68
35435;BME280;21556;55.782;37.528;2023-09-12T11:37:09;100180.69;;;24.36;59.38
35435;BME280;21556;55.782;37.528;2023-09-12T11:39:36;100184.59;;;23.98;62.31
35435;BME280;21556;55.782;37.528;2023-09-12T11:42:04;100186.56;;;23.60;64.28
35435;BME280;21556;55.782;37.528;2023-09-12T11:44:30;100184.84;;;24.18;59.01
35435;BME280;21556;55.782;37.528;2023-09-12T11:47:03;100175.81;;;24.21;59.68
35435;BME280;21556;55.782;37.528;2023-09-12T11:49:36;100177.13;;;23.80;64.55
35435;BME280;21556;55.782;37.528;2023-09-12T11:52:03;100177.09;;;24.09;63.25
35435;BME280;21556;55.782;37.528;2023-09-12T11:54:33;100184.75;;;23.93;60.38
35435;BME280;21556;55.782;37.528;2023-09-12T11:56:59;100180.13;;;23.67;59.49
35435;BME280;21556;55.782;37.528;2023-09-12T11:59:26;100183.38;;;24.08;57.50
35435;BME280;21556;55.782;37.528;2023-09-12T12:01:53;100179.38;;;23.62;53.43
35435;BME280;21556;55.782;37.528;2023-09-12T12:04:21;100175.19;;;23.53;59.67
35435;BME280;21556;55.782;37.528;2023-09-12T12:06:50;100180.72;;;23.47;64.05
35435;BME280;21556;55.782;37.528;2023-09-12T12:09:19;100179.78;;;23.80;58.63
35435;BME280;21556;55.782;37.528;2023-09-12T12:11:47;100183.88;;;23.60;56.72
35435;BME280;21556;55.782;37.528;2023-09-12T12:14:17;100176.47;;;23.71;58.86
35435;BME280;21556;55.782;37.528;2023-09-12T12:16:45;100183.38;;;23.47;61.59
35435;BME280;21556;55.782;37.528;2023-09-12T12:19:13;100175.56;;;23.71;59.45
35435;BME280;21556;55.782;37.528;2023-09-12T12:21:45;100179.25;;;23.68;61.89
35435;BME280;21556;55.782;37.528;2023-09-12T12:24:17;100179.56;;;23.25;64.25
35435;BME280;21556;55.782;37.528;2023-09-12T12:26:46;100181.63;;;23.77;63.86
35435;BME280;21556;55.782;37.528;2023-09-12T12:29:12;100182.81;;;23.67;64.53
35435;BME280;21556;55.782;37.528;2023-09-12T12:31:40;100175.13;;;23.55;68.03
35435;BME280;21556;55.782;37.528;2023-09-12T12:34:06;100177.63;;;23.30;73.73
35435;BME280;21556;55.782;37.528;2023-09-12T12:36:32;100181.94;;;23.03;76.74
35435;BME280;21556;55.782;37.528;2023-09-12T12:38:59;100169.72;;;22.93;75.76
35435;BME280;21556;55.782;37.528;2023-09-12T12:41:29;100171.97;;;23.08;71.76
35435;BME280;21556;55.782;37.528;2023-09-12T12:44:01;100171.03;;;22.41;74.57
35435;BME280;21556;55.782;37.528;2023-09-12T12:46:27;100170.31;;;22.68;77.22
35435;BME280;21556;55.782;37.528;2023-09-12T12:48:54;100168.78;;;23.26;70.47
35435;BME280;21556;55.782;37.528;2023-09-12T12:51:23;100167.41;;;23.13;72.14
35435;BME280;21556;55.782;37.528;2023-09-12T12:53:52;100164.88;;;23.40;70.74
35435;BME280;21556;55.782;37.528;2023-09-12T12:56:21;100171.69;;;23.19;72.95
35435;BME280;21556;55.782;37.528;2023-09-12T12:58:51;100164.09;;;23.35;72.74